createdAt,value
2023-04-11T00:00:59.421Z,8.40
2023-04-11T00:02:17.984Z,8.39
2023-04-11T00:03:29.330Z,8.26
2023-04-11T00:04:39.936Z,8.30
2023-04-11T00:06:04.360Z,8.26
2023-04-11T00:07:41.414Z,8.32
2023-04-11T00:08:49.474Z,8.31
2023-04-11T00:10:29.726Z,8.32
2023-04-11T00:11:42.061Z,8.33
2023-04-11T00:12:49.140Z,8.37
2023-04-11T00:13:57.789Z,8.38
2023-04-11T00:15:12.332Z,8.39
2023-04-11T00:16:25.140Z,8.35
2023-04-11T00:17:33.555Z,8.31
2023-04-11T00:19:27.480Z,8.26
2023-04-11T00:20:53.289Z,8.28
2023-04-11T00:24:17.159Z,8.29
2023-04-11T00:25:39.650Z,8.33
2023-04-11T00:26:50.091Z,8.36
2023-04-11T00:28:49.479Z,8.35
2023-04-11T00:30:14.262Z,8.35
2023-04-11T00:31:41.549Z,8.30
2023-04-11T00:32:48.816Z,8.28
2023-04-11T00:34:21.848Z,8.26
2023-04-11T00:35:30.892Z,8.21
2023-04-11T00:36:42.556Z,8.23
2023-04-11T00:37:56.190Z,8.20
2023-04-11T00:39:13.791Z,8.24
2023-04-11T00:40:24.527Z,8.22
2023-04-11T00:41:37.572Z,8.26
2023-04-11T00:42:49.978Z,8.26
2023-04-11T00:44:00.836Z,8.28
2023-04-11T00:45:18.694Z,8.28
2023-04-11T00:46:22.812Z,8.27
2023-04-11T00:47:30.436Z,8.23
2023-04-11T00:48:37.272Z,8.20
2023-04-11T00:49:43.586Z,8.25
2023-04-11T00:50:49.232Z,8.25
2023-04-11T00:52:05.095Z,8.24
2023-04-11T00:53:13.426Z,8.21
2023-04-11T00:54:22.664Z,8.17
2023-04-11T00:55:33.288Z,8.12
2023-04-11T00:56:55.945Z,8.11
2023-04-11T00:58:01.894Z,8.10
2023-04-11T00:59:08.088Z,8.06
2023-04-11T01:00:16.762Z,8.06
2023-04-11T01:01:25.202Z,8.11
2023-04-11T01:02:29.961Z,8.09
2023-04-11T01:03:38.345Z,8.09
2023-04-11T01:04:43.476Z,8.08
2023-04-11T01:05:52.579Z,8.10
2023-04-11T01:07:04.317Z,8.10
2023-04-11T01:08:09.621Z,8.10
2023-04-11T01:09:22.805Z,7.95
2023-04-11T01:10:32.316Z,7.96
2023-04-11T01:11:37.628Z,8.01
2023-04-11T01:12:48.258Z,7.95
2023-04-11T01:13:56.865Z,7.93
2023-04-11T01:15:05.278Z,7.98
2023-04-11T01:16:16.621Z,7.98
2023-04-11T01:17:24.393Z,7.95
2023-04-11T01:18:29.951Z,7.94
2023-04-11T01:19:39.572Z,7.89
2023-04-11T01:20:49.594Z,7.86
2023-04-11T01:22:02.939Z,7.84
2023-04-11T01:23:14.279Z,7.82
2023-04-11T01:24:18.359Z,7.81
2023-04-11T01:25:25.213Z,7.80
2023-04-11T01:26:31.830Z,7.83
2023-04-11T01:27:38.466Z,7.85
2023-04-11T01:28:46.445Z,7.82
2023-04-11T01:29:52.485Z,7.80
2023-04-11T01:30:58.228Z,7.79
2023-04-11T01:32:03.242Z,7.77
2023-04-11T01:33:11.810Z,7.79
2023-04-11T01:34:19.709Z,7.72
2023-04-11T01:35:25.037Z,7.71
2023-04-11T01:36:31.726Z,7.70
2023-04-11T01:37:36.822Z,7.71
2023-04-11T01:38:41.032Z,7.72
2023-04-11T01:39:44.974Z,7.65
2023-04-11T01:40:49.117Z,7.71
2023-04-11T01:41:57.043Z,7.73
2023-04-11T01:43:03.308Z,7.76
2023-04-11T01:44:08.613Z,7.70
2023-04-11T01:45:13.479Z,7.73
2023-04-11T01:46:18.045Z,7.73
2023-04-11T01:47:22.306Z,7.73
2023-04-11T01:48:26.903Z,7.75
2023-04-11T01:49:31.168Z,7.75
2023-04-11T01:50:35.110Z,7.71
2023-04-11T01:51:38.921Z,7.60
2023-04-11T01:52:42.492Z,7.55
2023-04-11T01:53:47.749Z,7.57
2023-04-11T01:54:54.281Z,7.56
2023-04-11T01:55:58.274Z,7.48
2023-04-11T01:57:02.450Z,7.47
2023-04-11T01:58:06.445Z,7.51
2023-04-11T01:59:10.480Z,7.57
2023-04-11T02:00:15.119Z,7.55
2023-04-11T02:01:22.816Z,7.55
2023-04-11T02:02:26.947Z,7.51
2023-04-11T02:03:31.938Z,7.48
2023-04-11T02:04:36.233Z,7.47
2023-04-11T02:05:40.590Z,7.46
2023-04-11T02:06:45.107Z,7.49
2023-04-11T02:07:49.211Z,7.47
2023-04-11T02:08:53.607Z,7.47
2023-04-11T02:09:59.048Z,7.42
2023-04-11T02:11:03.317Z,7.38
2023-04-11T02:12:11.372Z,7.39
2023-04-11T02:13:15.644Z,7.45
2023-04-11T02:14:20.918Z,7.45
2023-04-11T02:15:27.288Z,7.49
2023-04-11T02:16:31.753Z,7.49
2023-04-11T02:17:37.206Z,7.44
2023-04-11T02:18:44.251Z,7.36
2023-04-11T02:19:48.154Z,7.27
2023-04-11T02:20:52.885Z,7.25
2023-04-11T02:21:56.659Z,7.25
2023-04-11T02:23:04.596Z,7.26
2023-04-11T02:24:08.614Z,7.28
2023-04-11T02:25:12.243Z,7.26
2023-04-11T02:26:16.354Z,7.27
2023-04-11T02:27:20.856Z,7.30
2023-04-11T02:28:24.882Z,7.30
2023-04-11T02:29:31.211Z,7.36
2023-04-11T02:30:35.617Z,7.37
2023-04-11T02:31:40.632Z,7.37
2023-04-11T02:32:52.275Z,7.39
2023-04-11T02:33:56.343Z,7.35
2023-04-11T02:35:00.895Z,7.41
2023-04-11T02:36:05.740Z,7.36
2023-04-11T02:37:09.735Z,7.32
2023-04-11T02:38:14.000Z,7.37
2023-04-11T02:39:19.791Z,7.37
2023-04-11T02:40:23.642Z,7.36
2023-04-11T02:41:27.668Z,7.27
2023-04-11T02:42:31.740Z,7.30
2023-04-11T02:43:35.661Z,7.24
2023-04-11T02:44:39.513Z,7.22
2023-04-11T02:45:52.455Z,7.19
2023-04-11T02:47:00.320Z,7.24
2023-04-11T02:48:05.890Z,7.28
2023-04-11T02:49:09.968Z,7.20
2023-04-11T02:50:13.475Z,7.21
2023-04-11T02:51:17.618Z,7.19
2023-04-11T02:52:22.587Z,7.28
2023-04-11T02:53:27.307Z,7.30
2023-04-11T02:54:31.236Z,7.34
2023-04-11T02:55:35.256Z,7.28
2023-04-11T02:56:39.113Z,7.25
2023-04-11T02:57:42.954Z,7.17
2023-04-11T02:58:47.099Z,7.20
2023-04-11T02:59:51.062Z,7.22
2023-04-11T03:00:58.055Z,7.25
2023-04-11T03:02:02.361Z,7.26
2023-04-11T03:03:06.737Z,7.16
2023-04-11T03:04:11.153Z,7.16
2023-04-11T03:05:15.884Z,7.15
2023-04-11T03:06:19.556Z,7.14
2023-04-11T03:07:23.703Z,7.18
2023-04-11T03:08:27.927Z,7.10
2023-04-11T03:09:32.692Z,7.13
2023-04-11T03:10:36.975Z,7.08
2023-04-11T03:11:41.410Z,7.00
2023-04-11T03:12:45.506Z,6.98
2023-04-11T03:13:49.553Z,6.94
2023-04-11T03:14:54.381Z,6.96
2023-04-11T03:15:58.355Z,6.91
2023-04-11T03:17:02.530Z,6.90
2023-04-11T03:18:06.656Z,6.96
2023-04-11T03:19:10.759Z,6.99
2023-04-11T03:20:19.949Z,6.98
2023-04-11T03:21:23.882Z,6.97
2023-04-11T03:22:27.556Z,6.88
2023-04-11T03:23:32.230Z,6.91
2023-04-11T03:24:36.095Z,6.95
2023-04-11T03:25:40.793Z,6.94
2023-04-11T03:26:44.935Z,6.89
2023-04-11T03:27:49.489Z,6.82
2023-04-11T03:28:55.064Z,6.91
2023-04-11T03:29:59.418Z,6.87
2023-04-11T03:31:04.571Z,6.69
2023-04-11T03:32:08.792Z,6.77
2023-04-11T03:33:13.597Z,6.78
2023-04-11T03:34:18.609Z,6.81
2023-04-11T03:35:22.680Z,6.79
2023-04-11T03:36:29.679Z,6.82
2023-04-11T03:37:33.973Z,6.80
2023-04-11T03:38:37.816Z,6.86
2023-04-11T03:39:41.649Z,6.81
2023-04-11T03:40:45.943Z,6.89
2023-04-11T03:41:50.093Z,6.87
2023-04-11T03:42:54.013Z,6.80
2023-04-11T03:43:58.267Z,6.67
2023-04-11T03:45:02.643Z,6.71
2023-04-11T03:46:06.910Z,6.72
2023-04-11T03:47:11.515Z,6.67
2023-04-11T03:48:18.198Z,6.67
2023-04-11T03:49:24.277Z,6.67
2023-04-11T03:50:28.497Z,6.71
2023-04-11T03:51:32.833Z,6.79
2023-04-11T03:52:36.992Z,6.82
2023-04-11T03:53:41.437Z,6.81
2023-04-11T03:54:47.832Z,6.76
2023-04-11T03:55:53.617Z,6.69
2023-04-11T03:56:58.392Z,6.67
2023-04-11T03:58:02.530Z,6.60
2023-04-11T03:59:07.091Z,6.61
2023-04-11T04:00:12.891Z,6.56
2023-04-11T04:01:16.816Z,6.57
2023-04-11T04:02:21.191Z,6.65
2023-04-11T04:03:25.809Z,6.74
2023-04-11T04:04:32.724Z,6.71
2023-04-11T04:05:37.534Z,6.69
2023-04-11T04:06:43.216Z,6.65
2023-04-11T04:07:46.935Z,6.58
2023-04-11T04:08:50.773Z,6.68
2023-04-11T04:09:55.030Z,6.67
2023-04-11T04:10:58.845Z,6.66
2023-04-11T04:12:02.788Z,6.60
2023-04-11T04:13:06.537Z,6.61
2023-04-11T04:14:10.737Z,6.64
2023-04-11T04:15:16.228Z,6.74
2023-04-11T04:16:21.687Z,6.76
2023-04-11T04:17:25.622Z,6.70
2023-04-11T04:18:29.386Z,6.68
2023-04-11T04:19:36.880Z,6.65
2023-04-11T04:20:42.483Z,6.56
2023-04-11T04:21:46.858Z,6.58
2023-04-11T04:22:53.546Z,6.57
2023-04-11T04:23:57.716Z,6.57
2023-04-11T04:25:02.391Z,6.67
2023-04-11T04:26:06.980Z,6.66
2023-04-11T04:27:11.457Z,6.70
2023-04-11T04:28:20.647Z,6.77
2023-04-11T04:29:29.975Z,6.78
2023-04-11T04:30:38.338Z,6.75
2023-04-11T04:31:43.544Z,6.66
2023-04-11T04:32:47.683Z,6.62
2023-04-11T04:33:52.183Z,6.62
2023-04-11T04:34:56.329Z,6.69
2023-04-11T04:36:00.565Z,6.65
2023-04-11T04:37:05.247Z,6.68
2023-04-11T04:38:09.840Z,6.61
2023-04-11T04:39:18.171Z,6.59
2023-04-11T04:40:22.793Z,6.57
2023-04-11T04:41:34.126Z,6.55
2023-04-11T04:42:41.536Z,6.64
2023-04-11T04:43:46.399Z,6.74
2023-04-11T04:44:51.862Z,6.80
2023-04-11T04:45:56.577Z,6.75
2023-04-11T04:47:00.807Z,6.75
2023-04-11T04:48:05.239Z,6.83
2023-04-11T04:49:09.747Z,6.69
2023-04-11T04:50:13.790Z,6.75
2023-04-11T04:51:17.738Z,6.71
2023-04-11T04:52:22.078Z,6.71
2023-04-11T04:53:26.228Z,6.72
2023-04-11T04:54:31.550Z,6.73
2023-04-11T04:55:36.078Z,6.72
2023-04-11T04:56:40.026Z,6.72
2023-04-11T04:57:43.537Z,6.67
2023-04-11T04:58:47.552Z,6.70
2023-04-11T04:59:51.466Z,6.67
2023-04-11T05:00:58.099Z,6.68
2023-04-11T05:02:02.175Z,6.76
2023-04-11T05:03:09.000Z,6.82
2023-04-11T05:04:13.192Z,6.82
2023-04-11T05:05:17.641Z,6.78
2023-04-11T05:06:21.544Z,6.63
2023-04-11T05:07:26.559Z,6.81
2023-04-11T05:08:30.461Z,6.87
2023-04-11T05:09:34.259Z,6.88
2023-04-11T05:10:38.224Z,6.91
2023-04-11T05:11:42.992Z,6.87
2023-04-11T05:12:46.928Z,6.89
2023-04-11T05:13:51.044Z,6.90
2023-04-11T05:14:57.001Z,6.96
2023-04-11T05:16:02.413Z,6.95
2023-04-11T05:17:06.435Z,6.98
2023-04-11T05:18:10.481Z,6.88
2023-04-11T05:19:14.402Z,6.93
2023-04-11T05:20:20.153Z,6.97
2023-04-11T05:21:24.152Z,7.01
2023-04-11T05:22:27.899Z,6.90
2023-04-11T05:23:32.204Z,6.89
2023-04-11T05:24:36.263Z,6.93
2023-04-11T05:25:40.428Z,6.96
2023-04-11T05:26:45.015Z,7.01
2023-04-11T05:27:48.980Z,7.01
2023-04-11T05:28:52.912Z,7.03
2023-04-11T05:29:56.608Z,7.06
2023-04-11T05:31:02.551Z,7.02
2023-04-11T05:32:06.469Z,6.98
2023-04-11T05:33:13.183Z,7.05
2023-04-11T05:34:17.145Z,7.05
2023-04-11T05:35:24.782Z,7.07
2023-04-11T05:36:29.842Z,7.07
2023-04-11T05:37:35.065Z,7.10
2023-04-11T05:38:39.388Z,7.12
2023-04-11T05:39:44.271Z,7.11
2023-04-11T05:40:48.302Z,7.07
2023-04-11T05:41:53.432Z,7.08
2023-04-11T05:42:58.008Z,7.00
2023-04-11T05:44:02.429Z,7.11
2023-04-11T05:45:07.644Z,7.18
2023-04-11T05:46:12.857Z,7.21
2023-04-11T05:47:19.341Z,7.21
2023-04-11T05:48:24.130Z,7.25
2023-04-11T05:49:31.434Z,7.18
2023-04-11T05:50:36.153Z,7.16
2023-04-11T05:51:39.886Z,7.21
2023-04-11T05:52:43.622Z,7.26
2023-04-11T05:53:48.665Z,7.31
2023-04-11T05:54:52.502Z,7.32
2023-04-11T05:55:56.253Z,7.34
2023-04-11T05:57:00.180Z,7.31
2023-04-11T05:58:04.666Z,7.33
2023-04-11T05:59:08.569Z,7.32
2023-04-11T06:00:14.556Z,7.32
2023-04-11T06:01:22.549Z,7.36
2023-04-11T06:02:28.918Z,7.37
2023-04-11T06:03:32.971Z,7.40
2023-04-11T06:04:37.015Z,7.36
2023-04-11T06:05:41.288Z,7.41
2023-04-11T06:06:46.226Z,7.44
2023-04-11T06:07:50.368Z,7.50
2023-04-11T06:08:54.696Z,7.52
2023-04-11T06:09:59.114Z,7.61
2023-04-11T06:11:03.113Z,7.65
2023-04-11T06:12:08.229Z,7.65
2023-04-11T06:13:12.555Z,7.71
2023-04-11T06:14:18.499Z,7.70
2023-04-11T06:15:25.267Z,7.78
2023-04-11T06:16:32.756Z,7.83
2023-04-11T06:17:37.088Z,7.86
2023-04-11T06:18:41.644Z,7.83
2023-04-11T06:19:45.668Z,7.90
2023-04-11T06:20:49.845Z,7.88
2023-04-11T06:21:53.525Z,7.82
2023-04-11T06:22:57.350Z,7.98
2023-04-11T06:24:09.723Z,8.06
2023-04-11T06:25:19.037Z,7.99
2023-04-11T06:26:22.804Z,8.08
2023-04-11T06:27:27.429Z,8.27
2023-04-11T06:28:31.782Z,8.34
2023-04-11T06:29:38.771Z,8.45
2023-04-11T06:30:43.318Z,8.51
2023-04-11T06:31:47.650Z,8.61
2023-04-11T06:32:52.795Z,8.66
2023-04-11T06:33:57.364Z,8.77
2023-04-11T06:35:01.774Z,8.83
2023-04-11T06:36:06.346Z,8.87
2023-04-11T06:37:11.351Z,8.99
2023-04-11T06:38:15.575Z,9.11
2023-04-11T06:39:20.899Z,9.28
2023-04-11T06:40:24.896Z,9.40
2023-04-11T06:41:29.436Z,9.52
2023-04-11T06:42:33.994Z,9.66
2023-04-11T06:43:38.096Z,9.84
2023-04-11T06:44:42.146Z,9.86
2023-04-11T06:45:47.769Z,10.03
2023-04-11T06:46:52.916Z,10.10
2023-04-11T06:48:01.366Z,10.43
2023-04-11T06:49:07.370Z,10.91
2023-04-11T06:50:12.468Z,11.37
2023-04-11T06:51:17.534Z,11.51
2023-04-11T06:52:21.738Z,11.69
2023-04-11T06:53:26.463Z,12.08
2023-04-11T06:54:30.469Z,12.49
2023-04-11T06:55:34.378Z,12.78
2023-04-11T06:56:38.349Z,13.12
2023-04-11T06:57:44.266Z,13.37
2023-04-11T06:58:48.310Z,13.42
2023-04-11T06:59:53.427Z,13.77
2023-04-11T07:00:57.742Z,14.26
2023-04-11T07:02:01.705Z,14.79
2023-04-11T07:03:09.475Z,15.07
2023-04-11T07:04:14.943Z,15.41
2023-04-11T07:05:19.509Z,15.75
2023-04-11T07:06:23.812Z,15.98
2023-04-11T07:07:28.118Z,16.24
2023-04-11T07:08:36.361Z,16.22
2023-04-11T07:09:41.253Z,16.45
2023-04-11T07:10:46.030Z,16.76
2023-04-11T07:11:50.975Z,17.01
2023-04-11T07:12:55.805Z,17.28
2023-04-11T07:14:01.247Z,17.46
2023-04-11T07:15:06.656Z,17.53
2023-04-11T07:16:11.516Z,17.70
2023-04-11T07:17:16.337Z,17.98
2023-04-11T07:18:19.913Z,18.02
2023-04-11T07:19:23.852Z,17.99
2023-04-11T07:20:28.245Z,18.25
2023-04-11T07:21:32.819Z,18.53
2023-04-11T07:22:37.100Z,18.93
2023-04-11T07:23:43.289Z,19.05
2023-04-11T07:24:51.787Z,19.06
2023-04-11T07:25:56.989Z,19.17
2023-04-11T07:27:01.990Z,19.66
2023-04-11T07:28:08.993Z,19.89
2023-04-11T07:29:14.901Z,20.16
2023-04-11T07:30:20.129Z,20.52
2023-04-11T07:31:25.274Z,20.64
2023-04-11T07:32:29.988Z,20.85
2023-04-11T07:33:34.550Z,20.85
2023-04-11T07:34:38.850Z,20.69
2023-04-11T07:35:43.969Z,20.96
2023-04-11T07:36:50.332Z,21.32
2023-04-11T07:37:54.596Z,21.60
2023-04-11T07:39:00.267Z,21.79
2023-04-11T07:40:12.144Z,22.14
2023-04-11T07:41:16.641Z,22.28
2023-04-11T07:42:21.560Z,22.39
2023-04-11T07:43:28.412Z,22.67
2023-04-11T07:44:32.344Z,22.73
2023-04-11T07:45:37.537Z,22.79
2023-04-11T07:46:41.494Z,22.97
2023-04-11T07:47:45.597Z,22.93
2023-04-11T07:48:49.344Z,22.88
2023-04-11T07:49:53.387Z,22.59
2023-04-11T07:51:07.547Z,22.32
2023-04-11T07:52:14.064Z,22.17
2023-04-11T07:53:18.704Z,21.61
2023-04-11T07:54:25.356Z,21.42
2023-04-11T07:55:28.969Z,21.23
2023-04-11T07:56:32.829Z,20.84
2023-04-11T07:57:43.098Z,20.60
2023-04-11T07:58:48.557Z,20.62
2023-04-11T07:59:52.824Z,20.62
2023-04-11T08:01:03.270Z,20.71
2023-04-11T08:02:08.297Z,20.96
2023-04-11T08:03:13.646Z,20.97
2023-04-11T08:04:18.319Z,20.89
2023-04-11T08:05:22.325Z,20.73
2023-04-11T08:06:27.267Z,20.89
2023-04-11T08:07:32.523Z,20.96
2023-04-11T08:08:37.168Z,21.18
2023-04-11T08:09:44.561Z,21.23
2023-04-11T08:10:52.352Z,21.19
2023-04-11T08:11:59.856Z,21.45
2023-04-11T08:13:04.078Z,21.46
2023-04-11T08:14:08.768Z,21.43
2023-04-11T08:15:13.358Z,21.21
2023-04-11T08:16:17.565Z,21.10
2023-04-11T08:17:28.636Z,20.80
2023-04-11T08:18:35.517Z,20.95
2023-04-11T08:19:40.296Z,21.07
2023-04-11T08:20:44.737Z,21.04
2023-04-11T08:21:48.993Z,21.10
2023-04-11T08:22:58.074Z,20.76
2023-04-11T08:24:04.664Z,20.71
2023-04-11T08:25:12.210Z,20.84
2023-04-11T08:26:17.704Z,20.57
2023-04-11T08:27:22.252Z,20.38
2023-04-11T08:28:26.995Z,20.37
2023-04-11T08:29:31.474Z,20.19
2023-04-11T08:30:35.789Z,20.29
2023-04-11T08:31:46.802Z,20.21
2023-04-11T08:32:51.232Z,20.01
2023-04-11T08:33:58.456Z,19.95
2023-04-11T08:35:08.323Z,19.77
2023-04-11T08:36:13.760Z,19.75
2023-04-11T08:37:19.659Z,19.61
2023-04-11T08:38:23.514Z,19.76
2023-04-11T08:39:27.472Z,19.65
2023-04-11T08:40:32.670Z,19.89
2023-04-11T08:41:38.894Z,19.91
2023-04-11T08:42:47.657Z,20.14
2023-04-11T08:43:51.648Z,20.23
2023-04-11T08:45:04.860Z,20.41
2023-04-11T08:46:09.186Z,20.65
2023-04-11T08:47:18.001Z,20.80
2023-04-11T08:48:26.384Z,20.81
2023-04-11T08:49:30.816Z,20.83
2023-04-11T08:50:40.573Z,20.89
2023-04-11T08:51:50.466Z,20.86
2023-04-11T08:53:04.458Z,21.13
2023-04-11T08:54:11.424Z,21.12
2023-04-11T08:55:17.394Z,21.30
2023-04-11T08:56:24.289Z,21.15
2023-04-11T08:57:35.176Z,21.21
2023-04-11T08:59:52.184Z,21.06
2023-04-11T09:00:56.110Z,21.17
2023-04-11T09:02:15.226Z,20.88
2023-04-11T09:03:23.136Z,21.06
2023-04-11T09:04:41.515Z,20.72
2023-04-11T09:05:49.454Z,20.61
2023-04-11T09:07:06.637Z,20.22
2023-04-11T09:08:14.044Z,20.09
2023-04-11T09:09:31.107Z,19.98
2023-04-11T09:10:37.958Z,19.78
2023-04-11T09:11:56.172Z,19.60
2023-04-11T09:13:02.409Z,19.67
2023-04-11T09:14:12.215Z,19.75
2023-04-11T09:15:22.648Z,19.80
2023-04-11T09:16:27.502Z,19.83
2023-04-11T09:17:43.501Z,19.81
2023-04-11T09:18:48.213Z,19.95
2023-04-11T09:19:52.726Z,19.92
2023-04-11T09:21:03.430Z,19.89
2023-04-11T09:22:14.946Z,19.93
2023-04-11T09:23:26.123Z,19.95
2023-04-11T09:24:34.721Z,19.90
2023-04-11T09:25:45.720Z,19.70
2023-04-11T09:26:51.435Z,19.45
2023-04-11T09:28:11.427Z,19.05
2023-04-11T09:29:57.042Z,18.90
2023-04-11T09:31:01.580Z,18.91
2023-04-11T09:32:06.377Z,18.66
2023-04-11T09:33:31.786Z,18.55
2023-04-11T09:34:41.138Z,18.48
2023-04-11T09:35:55.664Z,18.34
2023-04-11T09:36:59.748Z,18.34
2023-04-11T09:38:07.502Z,18.27
2023-04-11T09:39:20.845Z,18.12
2023-04-11T09:40:28.232Z,18.11
2023-04-11T09:41:40.935Z,17.96
2023-04-11T09:42:59.249Z,17.80
2023-04-11T09:44:05.207Z,17.76
2023-04-11T09:45:26.116Z,17.72
2023-04-11T09:46:30.020Z,17.70
2023-04-11T09:47:34.626Z,17.70
2023-04-11T09:49:48.619Z,17.63
2023-04-11T09:50:54.551Z,17.60
2023-04-11T09:52:01.328Z,17.75
2023-04-11T09:53:08.816Z,17.73
2023-04-11T09:54:22.271Z,17.69
2023-04-11T09:55:27.897Z,17.77
2023-04-11T09:56:34.902Z,17.76
2023-04-11T09:57:49.011Z,17.70
2023-04-11T09:58:57.608Z,17.70
2023-04-11T10:00:16.480Z,17.70
2023-04-11T10:01:21.522Z,17.78
2023-04-11T10:02:25.744Z,17.77
2023-04-11T10:03:38.948Z,17.85
2023-04-11T10:04:45.458Z,17.89
2023-04-11T10:05:53.339Z,17.99
2023-04-11T10:07:18.932Z,17.94
2023-04-11T10:08:47.807Z,17.95
2023-04-11T10:09:52.766Z,17.95
2023-04-11T10:11:01.307Z,17.90
2023-04-11T10:12:10.074Z,17.89
2023-04-11T10:13:45.120Z,17.74
2023-04-11T10:14:49.607Z,17.83
2023-04-11T10:16:28.996Z,17.81
2023-04-11T10:17:37.106Z,17.76
2023-04-11T10:18:56.921Z,17.85
2023-04-11T10:20:01.565Z,17.82
2023-04-11T10:21:34.940Z,17.86
2023-04-11T10:22:43.678Z,17.79
2023-04-11T10:24:17.125Z,17.81
2023-04-11T10:25:28.228Z,17.82
2023-04-11T10:26:59.004Z,17.74
2023-04-11T10:28:06.279Z,17.76
2023-04-11T10:29:41.045Z,17.79
2023-04-11T10:30:45.578Z,17.68
2023-04-11T10:32:11.139Z,17.71
2023-04-11T10:33:21.916Z,17.71
2023-04-11T10:34:27.679Z,17.69
2023-04-11T10:35:34.318Z,17.66
2023-04-11T10:37:12.631Z,17.69
2023-04-11T10:38:43.813Z,17.71
2023-04-11T10:39:53.958Z,17.69
2023-04-11T10:41:18.265Z,17.76
2023-04-11T10:42:41.289Z,17.76
2023-04-11T10:43:48.130Z,17.80
2023-04-11T10:45:26.558Z,17.82
2023-04-11T10:46:33.190Z,17.82
2023-04-11T10:47:38.775Z,17.81
2023-04-11T10:48:59.299Z,17.84
2023-04-11T10:50:26.882Z,17.74
2023-04-11T10:51:34.405Z,17.71
2023-04-11T10:52:40.283Z,17.59
2023-04-11T10:53:47.627Z,17.63
2023-04-11T10:54:54.699Z,17.63
2023-04-11T10:55:59.811Z,17.62
2023-04-11T10:57:04.932Z,17.51
2023-04-11T10:58:20.000Z,17.58
2023-04-11T10:59:37.276Z,17.62
2023-04-11T11:00:50.060Z,17.56
2023-04-11T11:02:03.835Z,17.56
2023-04-11T11:03:20.671Z,17.51
2023-04-11T11:04:45.247Z,17.45
2023-04-11T11:06:10.477Z,17.43
2023-04-11T11:07:17.114Z,17.43
2023-04-11T11:08:41.925Z,17.45
2023-04-11T11:09:51.645Z,17.47
2023-04-11T11:11:05.141Z,17.45
2023-04-11T11:12:13.145Z,17.46
2023-04-11T11:13:18.324Z,17.45
2023-04-11T11:14:31.376Z,17.41
2023-04-11T11:15:41.665Z,17.37
2023-04-11T11:16:47.576Z,17.34
2023-04-11T11:17:53.348Z,17.40
2023-04-11T11:19:00.144Z,17.39
2023-04-11T11:20:13.845Z,17.37
2023-04-11T11:21:29.139Z,17.43
2023-04-11T11:22:33.683Z,17.36
2023-04-11T11:23:38.016Z,17.32
2023-04-11T11:24:42.453Z,17.32
2023-04-11T11:25:58.168Z,17.32
2023-04-11T11:27:04.838Z,17.35
2023-04-11T11:28:10.730Z,17.37
2023-04-11T11:29:16.170Z,17.45
2023-04-11T11:30:21.399Z,17.39
2023-04-11T11:31:42.497Z,17.36
2023-04-11T11:32:46.987Z,17.39
2023-04-11T11:33:51.881Z,17.45
2023-04-11T11:35:03.503Z,17.47
2023-04-11T11:36:09.561Z,17.55
2023-04-11T11:37:15.062Z,17.53
2023-04-11T11:38:22.773Z,17.54
2023-04-11T11:39:29.439Z,17.65
2023-04-11T11:40:34.024Z,17.69
2023-04-11T11:41:42.345Z,17.73
2023-04-11T11:42:52.499Z,17.81
2023-04-11T11:43:57.555Z,17.80
2023-04-11T11:45:39.957Z,17.88
2023-04-11T11:47:07.117Z,17.85
2023-04-11T11:48:24.199Z,17.81
2023-04-11T11:49:50.480Z,17.84
2023-04-11T11:50:58.951Z,17.89
2023-04-11T11:52:03.937Z,17.88
2023-04-11T11:53:20.040Z,17.85
2023-04-11T11:54:25.173Z,17.91
2023-04-11T11:55:32.776Z,17.90
2023-04-11T11:56:39.807Z,17.96
2023-04-11T11:57:50.475Z,18.00
2023-04-11T11:58:59.763Z,17.96
2023-04-11T12:00:11.901Z,18.07
2023-04-11T12:01:17.130Z,17.95
2023-04-11T12:02:28.980Z,17.99
2023-04-11T12:03:42.925Z,18.11
2023-04-11T12:04:50.189Z,18.12
2023-04-11T12:06:00.360Z,18.23
2023-04-11T12:07:26.312Z,18.27
2023-04-11T12:08:45.782Z,18.22
2023-04-11T12:10:03.018Z,18.12
2023-04-11T12:11:15.779Z,18.19
2023-04-11T12:12:21.975Z,18.26
2023-04-11T12:13:28.777Z,18.29
2023-04-11T12:14:35.211Z,18.23
2023-04-11T12:15:56.269Z,18.26
2023-04-11T12:17:03.217Z,18.27
2023-04-11T12:18:08.259Z,18.19
2023-04-11T12:19:13.566Z,18.17
2023-04-11T12:20:22.254Z,18.18
2023-04-11T12:21:32.076Z,18.20
2023-04-11T12:22:41.023Z,18.22
2023-04-11T12:23:56.513Z,18.25
2023-04-11T12:25:14.907Z,18.26
2023-04-11T12:26:29.445Z,18.34
2023-04-11T12:27:37.492Z,18.42
2023-04-11T12:28:43.243Z,18.43
2023-04-11T12:29:50.117Z,18.48
2023-04-11T12:30:54.257Z,18.45
2023-04-11T12:32:13.698Z,18.37
2023-04-11T12:33:18.333Z,18.34
2023-04-11T12:34:24.295Z,18.36
2023-04-11T12:35:44.767Z,18.30
2023-04-11T12:36:49.507Z,18.19
2023-04-11T12:37:54.721Z,18.18
2023-04-11T12:39:00.686Z,18.22
2023-04-11T12:40:12.528Z,18.26
2023-04-11T12:42:27.345Z,18.38
2023-04-11T12:43:33.024Z,18.39
2023-04-11T12:44:37.801Z,18.41
2023-04-11T12:45:42.487Z,18.40
2023-04-11T12:46:49.340Z,18.40
2023-04-11T12:47:55.608Z,18.43
2023-04-11T12:49:01.180Z,18.46
2023-04-11T12:50:07.816Z,18.44
2023-04-11T12:51:16.739Z,18.46
2023-04-11T12:52:29.805Z,18.49
2023-04-11T12:53:37.768Z,18.47
2023-04-11T12:54:42.587Z,18.50
2023-04-11T12:55:49.003Z,18.52
2023-04-11T12:57:02.795Z,18.46
2023-04-11T12:58:09.743Z,18.48
2023-04-11T12:59:14.854Z,18.45
2023-04-11T13:00:23.460Z,18.51
2023-04-11T13:01:28.579Z,18.51
2023-04-11T13:02:42.698Z,18.48
2023-04-11T13:03:49.888Z,18.47
2023-04-11T13:04:55.284Z,18.48
2023-04-11T13:06:03.102Z,18.51
2023-04-11T13:07:10.649Z,18.43
2023-04-11T13:08:16.537Z,18.50
2023-04-11T13:09:28.869Z,18.49
2023-04-11T13:10:49.075Z,18.42
2023-04-11T13:12:04.191Z,18.41
2023-04-11T13:13:18.117Z,18.40
2023-04-11T13:14:33.696Z,18.40
2023-04-11T13:15:53.434Z,18.30
2023-04-11T13:17:23.731Z,18.22
2023-04-11T13:18:38.867Z,18.22
2023-04-11T13:19:53.990Z,18.12
2023-04-11T13:21:03.552Z,18.11
2023-04-11T13:22:10.430Z,18.04
2023-04-11T13:23:17.828Z,17.94
2023-04-11T13:24:23.004Z,17.96
2023-04-11T13:25:41.047Z,17.91
2023-04-11T13:26:47.367Z,17.87
2023-04-11T13:27:53.947Z,17.87
2023-04-11T13:29:13.479Z,17.92
2023-04-11T13:30:25.656Z,17.90
2023-04-11T13:31:32.515Z,17.94
2023-04-11T13:32:37.255Z,17.83
2023-04-11T13:33:45.833Z,17.91
2023-04-11T13:35:04.693Z,17.97
2023-04-11T13:36:34.339Z,18.05
2023-04-11T13:37:43.996Z,18.10
2023-04-11T13:39:02.279Z,18.13
2023-04-11T13:40:11.544Z,18.15
2023-04-11T13:41:34.995Z,18.20
2023-04-11T13:44:08.508Z,18.24
2023-04-11T13:45:12.532Z,18.27
2023-04-11T13:47:38.773Z,18.27
2023-04-11T13:48:47.314Z,18.29
2023-04-11T13:49:51.155Z,18.29
2023-04-11T13:51:03.637Z,18.30
2023-04-11T13:52:29.097Z,18.31
2023-04-11T13:53:45.884Z,18.33
2023-04-11T13:54:50.555Z,18.32
2023-04-11T13:55:56.296Z,18.36
2023-04-11T13:57:03.998Z,18.36
2023-04-11T13:58:14.453Z,18.41
2023-04-11T13:59:18.749Z,18.36
2023-04-11T14:00:23.876Z,18.40
2023-04-11T14:01:33.029Z,18.42
2023-04-11T14:02:42.834Z,18.40
2023-04-11T14:03:48.541Z,18.41
2023-04-11T14:04:53.692Z,18.40
2023-04-11T14:05:58.835Z,18.30
2023-04-11T14:07:03.278Z,18.23
2023-04-11T14:08:10.217Z,18.25
2023-04-11T14:09:27.002Z,18.25
2023-04-11T14:10:38.306Z,18.16
2023-04-11T14:11:42.626Z,18.06
2023-04-11T14:12:50.522Z,18.10
2023-04-11T14:13:56.656Z,18.07
2023-04-11T14:15:02.550Z,18.01
2023-04-11T14:16:09.545Z,17.97
2023-04-11T14:17:15.212Z,17.88
2023-04-11T14:18:20.732Z,17.85
2023-04-11T14:19:27.502Z,17.86
2023-04-11T14:20:36.192Z,17.84
2023-04-11T14:21:41.651Z,17.80
2023-04-11T14:22:46.664Z,17.81
2023-04-11T14:23:54.503Z,17.80
2023-04-11T14:25:00.162Z,17.76
2023-04-11T14:26:08.390Z,17.72
2023-04-11T14:27:15.747Z,17.69
2023-04-11T14:28:20.759Z,17.73
2023-04-11T14:29:26.666Z,17.74
2023-04-11T14:30:32.208Z,17.69
2023-04-11T14:31:52.203Z,17.65
2023-04-11T14:33:13.744Z,17.61
2023-04-11T14:34:41.752Z,17.55
2023-04-11T14:35:47.671Z,17.52
2023-04-11T14:36:52.911Z,17.53
2023-04-11T14:37:58.349Z,17.48
2023-04-11T14:39:10.636Z,17.49
2023-04-11T14:40:25.654Z,17.36
2023-04-11T14:41:31.207Z,17.37
2023-04-11T14:42:38.552Z,17.36
2023-04-11T14:43:44.141Z,17.34
2023-04-11T14:44:51.123Z,17.32
2023-04-11T14:46:01.741Z,17.31
2023-04-11T14:47:16.173Z,17.27
2023-04-11T14:48:24.381Z,17.25
2023-04-11T14:49:31.253Z,17.24
2023-04-11T14:50:36.366Z,17.23
2023-04-11T14:51:42.411Z,17.19
2023-04-11T14:52:50.002Z,17.24
2023-04-11T14:53:57.615Z,17.30
2023-04-11T14:55:05.151Z,17.36
2023-04-11T14:56:10.137Z,17.44
2023-04-11T14:57:48.052Z,17.49
2023-04-11T14:58:59.893Z,17.50
2023-04-11T15:00:06.914Z,17.52
2023-04-11T15:01:13.287Z,17.52